Time;durP1;ratioP1;P1;durP2;ratioP2;P2;SDS_P1;SDS_P2;PMS_P1;PMS_P2;Temp;Humidity;BMP_temperature;BMP_pressure;BME280_temperature;BME280_humidity;BME280_pressure;Samples;Min_cycle;Max_cycle;Signal;HPM_P1;HPM_P2
2023/04/08 00:02:04;;;;;;;8.77;5.50;;;4.90;99.90;;;;;;5100496;28;20098;-75
2023/04/08 00:04:30;;;;;;;9.23;5.95;;;4.50;99.90;;;;;;5078194;28;20415;-75
2023/04/08 00:06:56;;;;;;;9.13;6.88;;;4.90;99.90;;;;;;5079083;28;20052;-75
2023/04/08 00:09:22;;;;;;;8.45;6.28;;;4.90;99.90;;;;;;5074602;28;20059;-74
2023/04/08 00:11:47;;;;;;;8.73;5.75;;;4.90;99.90;;;;;;5088508;28;20044;-75
2023/04/08 00:14:13;;;;;;;10.15;6.00;;;4.90;99.90;;;;;;5092347;28;20067;-74
2023/04/08 00:16:39;;;;;;;17.00;6.13;;;4.80;99.90;;;;;;5078418;28;20115;-74
2023/04/08 00:19:05;;;;;;;12.40;7.30;;;4.80;99.90;;;;;;5093766;28;20514;-75
2023/04/08 00:21:31;;;;;;;11.48;6.65;;;4.80;99.90;;;;;;5089934;28;20036;-75
2023/04/08 00:23:57;;;;;;;11.60;6.57;;;4.80;99.90;;;;;;5075571;28;20071;-74
2023/04/08 00:26:22;;;;;;;9.90;6.00;;;4.70;99.90;;;;;;5074977;28;20032;-76
2023/04/08 00:28:48;;;;;;;9.55;6.28;;;4.70;99.90;;;;;;5075234;28;20036;-76
2023/04/08 00:31:14;;;;;;;11.15;6.47;;;4.60;99.90;;;;;;5075041;28;20120;-76
2023/04/08 00:33:39;;;;;;;9.23;6.10;;;4.60;99.90;;;;;;5083258;28;20055;-76
2023/04/08 00:36:05;;;;;;;9.98;6.85;;;4.50;99.90;;;;;;5087436;28;20135;-75
2023/04/08 00:38:31;;;;;;;11.13;7.07;;;4.50;99.90;;;;;;5083227;28;20036;-75
2023/04/08 00:40:57;;;;;;;11.02;6.97;;;4.40;99.90;;;;;;5090119;28;20041;-75
2023/04/08 00:43:23;;;;;;;13.33;7.10;;;4.40;99.90;;;;;;5074702;28;20051;-74
2023/04/08 00:45:49;;;;;;;12.18;6.70;;;4.40;99.90;;;;;;5090769;28;20036;-76
2023/04/08 00:48:14;;;;;;;10.88;7.28;;;4.30;99.90;;;;;;5079098;28;20040;-75
2023/04/08 00:50:42;;;;;;;10.63;7.10;;;4.30;99.90;;;;;;5079173;28;20063;-75
2023/04/08 00:53:08;;;;;;;12.13;6.70;;;4.30;99.90;;;;;;5086377;28;20040;-76
2023/04/08 00:55:34;;;;;;;11.27;6.50;;;4.20;99.90;;;;;;5082951;28;20404;-75
2023/04/08 00:58:00;;;;;;;12.82;7.32;;;4.20;99.90;;;;;;5087766;28;20294;-76
2023/04/08 01:00:29;;;;;;;12.00;6.75;;;4.10;99.90;;;;;;5076343;28;20044;-75
2023/04/08 01:03:00;;;;;;;10.73;7.18;;;4.10;99.90;;;;;;5091040;28;20377;-75
2023/04/08 01:05:38;;;;;;;13.02;7.60;;;4.00;99.90;;;;;;5083140;28;20044;-75
2023/04/08 01:08:07;;;;;;;13.32;7.57;;;4.00;99.90;;;;;;5094252;28;20123;-74
2023/04/08 01:10:36;;;;;;;12.93;8.45;;;4.00;99.90;;;;;;5095212;28;20063;-74
2023/04/08 01:13:10;;;;;;;12.90;7.75;;;4.30;99.90;;;;;;5094211;28;20392;-76
2023/04/08 01:15:39;;;;;;;13.20;8.13;;;4.00;99.90;;;;;;5092909;28;20400;-75
2023/04/08 01:18:07;;;;;;;13.90;8.05;;;4.00;99.90;;;;;;5092976;28;20083;-75
2023/04/08 01:20:33;;;;;;;14.70;7.75;;;4.00;99.90;;;;;;5093934;28;20048;-75
2023/04/08 01:23:19;;;;;;;13.55;7.70;;;4.00;99.90;;;;;;5073853;28;20385;-74
2023/04/08 01:25:54;;;;;;;16.77;8.63;;;4.00;99.90;;;;;;5073703;28;20041;-75
2023/04/08 01:28:22;;;;;;;13.00;8.77;;;3.90;99.90;;;;;;5113450;28;20387;-74
2023/04/08 01:30:49;;;;;;;13.18;9.20;;;3.90;99.90;;;;;;5114102;28;20088;-75
2023/04/08 01:33:15;;;;;;;;;;;3.90;99.90;;;;;;5114646;28;20047;-74
2023/04/08 01:35:42;;;;;;;15.13;8.50;;;4.00;99.90;;;;;;5114313;28;20309;-74
2023/04/08 01:38:10;;;;;;;14.45;8.38;;;3.90;99.90;;;;;;5105778;28;20037;-76
2023/04/08 01:40:37;;;;;;;17.83;9.23;;;3.90;99.90;;;;;;5083793;28;20032;-75
2023/04/08 01:43:06;;;;;;;15.43;8.05;;;3.90;99.90;;;;;;5084525;28;20051;-76
2023/04/08 01:45:32;;;;;;;11.65;8.05;;;3.90;99.90;;;;;;5087359;28;20498;-75
2023/04/08 01:48:00;;;;;;;15.90;8.77;;;3.90;99.90;;;;;;5073689;28;20048;-74
2023/04/08 01:50:27;;;;;;;13.68;8.45;;;3.90;99.90;;;;;;5079709;28;20056;-75
2023/04/08 01:52:53;;;;;;;12.93;8.38;;;3.90;99.90;;;;;;5082563;28;20048;-74
2023/04/08 01:55:20;;;;;;;14.00;8.60;;;3.90;99.90;;;;;;5076094;28;20400;-75
2023/04/08 01:57:49;;;;;;;15.68;9.43;;;3.90;99.90;;;;;;5080949;28;20078;-74
2023/04/08 02:00:19;;;;;;;12.88;8.07;;;3.80;99.90;;;;;;5085845;28;20048;-73
2023/04/08 02:02:46;;;;;;;13.48;9.02;;;3.80;99.90;;;;;;5089479;28;20050;-75
2023/04/08 02:05:12;;;;;;;14.05;8.88;;;3.80;99.90;;;;;;5075807;28;20040;-75
2023/04/08 02:07:38;;;;;;;12.38;8.15;;;3.80;99.90;;;;;;5084352;28;20502;-73
2023/04/08 02:10:04;;;;;;;13.52;8.32;;;3.80;99.90;;;;;;5081608;28;20127;-73
2023/04/08 02:12:31;;;;;;;15.10;9.02;;;3.80;99.90;;;;;;5082834;28;20111;-76
2023/04/08 02:14:57;;;;;;;14.82;9.20;;;3.80;99.90;;;;;;5084310;28;20437;-74
2023/04/08 02:17:32;;;;;;;15.50;9.57;;;3.70;99.90;;;;;;5095862;28;20035;-74
2023/04/08 02:19:58;;;;;;;17.25;9.30;;;3.70;99.90;;;;;;5090910;28;20044;-76
2023/04/08 02:22:56;;;;;;;15.73;9.23;;;3.70;99.90;;;;;;5090555;28;20048;-75
2023/04/08 02:25:24;;;;;;;12.90;8.93;;;3.70;99.90;;;;;;5070845;28;20044;-74
2023/04/08 02:27:51;;;;;;;14.35;9.48;;;3.70;99.90;;;;;;5079891;28;20036;-74
2023/04/08 02:30:18;;;;;;;14.60;9.15;;;3.70;99.90;;;;;;5080400;28;20051;-73
2023/04/08 02:32:45;;;;;;;14.90;9.93;;;3.60;99.90;;;;;;5094952;28;20391;-75
2023/04/08 02:35:13;;;;;;;16.05;9.90;;;3.60;99.90;;;;;;5090092;28;20074;-75
2023/04/08 02:37:39;;;;;;;15.23;9.88;;;3.60;99.90;;;;;;5090211;28;20043;-75
2023/04/08 02:40:24;;;;;;;16.58;9.93;;;3.60;99.90;;;;;;5086564;28;20044;-75
2023/04/08 02:42:50;;;;;;;16.30;10.45;;;3.60;99.90;;;;;;5079892;28;20044;-73
2023/04/08 02:45:16;;;;;;;18.33;9.30;;;3.60;99.90;;;;;;5079631;28;20052;-75
2023/04/08 02:47:41;;;;;;;15.52;9.85;;;4.40;99.90;;;;;;5083979;28;20492;-75
2023/04/08 02:50:08;;;;;;;17.17;9.55;;;3.60;99.90;;;;;;5078664;28;20056;-75
2023/04/08 02:52:33;;;;;;;17.17;10.40;;;3.60;99.90;;;;;;5081427;28;20056;-74
2023/04/08 02:54:59;;;;;;;18.42;9.90;;;3.50;99.90;;;;;;5095947;28;20028;-74
2023/04/08 02:57:24;;;;;;;17.00;9.88;;;3.50;99.90;;;;;;5084700;28;20073;-74
2023/04/08 02:59:50;;;;;;;21.30;11.40;;;3.50;99.90;;;;;;5089378;28;20040;-75
2023/04/08 03:02:16;;;;;;;15.30;10.23;;;3.50;99.90;;;;;;5078905;28;20052;-74
2023/04/08 03:04:41;;;;;;;17.17;10.93;;;3.50;99.90;;;;;;5096116;28;20051;-74
2023/04/08 03:07:07;;;;;;;17.92;11.00;;;3.50;99.90;;;;;;5099756;28;20036;-74
2023/04/08 03:09:33;;;;;;;18.55;11.13;;;3.50;99.90;;;;;;5105251;28;20094;-74
2023/04/08 03:11:58;;;;;;;17.05;11.25;;;3.40;99.90;;;;;;5100081;28;20422;-74
2023/04/08 03:14:24;;;;;;;16.50;10.23;;;3.40;99.90;;;;;;5100018;28;20036;-75
2023/04/08 03:16:49;;;;;;;15.50;10.60;;;3.40;99.90;;;;;;5099272;28;20032;-75
2023/04/08 03:19:15;;;;;;;21.55;11.63;;;3.40;99.90;;;;;;5098470;28;20105;-74
2023/04/08 03:21:41;;;;;;;20.83;12.02;;;3.30;99.90;;;;;;5098295;28;20036;-74
2023/04/08 03:24:06;;;;;;;17.10;11.23;;;3.30;99.90;;;;;;5095169;28;20101;-73
2023/04/08 03:26:32;;;;;;;20.42;11.07;;;3.30;99.90;;;;;;5109577;28;20044;-74
2023/04/08 03:28:57;;;;;;;17.02;11.32;;;3.30;99.90;;;;;;5116335;28;20031;-74
2023/04/08 03:31:23;;;;;;;20.42;11.98;;;3.30;99.90;;;;;;5102503;28;20539;-74
2023/04/08 03:33:49;;;;;;;21.00;11.48;;;3.20;99.90;;;;;;5091224;28;20089;-74
2023/04/08 03:36:15;;;;;;;18.20;11.25;;;3.20;99.90;;;;;;5088208;28;20377;-74
2023/04/08 03:38:40;;;;;;;18.85;11.70;;;3.20;99.90;;;;;;5094721;28;20496;-74
2023/04/08 03:41:06;;;;;;;22.55;13.05;;;3.20;99.90;;;;;;5090069;28;20044;-75
2023/04/08 03:43:31;;;;;;;18.00;10.98;;;3.50;99.90;;;;;;5095952;28;20043;-74
2023/04/08 03:45:57;;;;;;;19.48;11.23;;;3.20;99.90;;;;;;5080352;28;20395;-75
2023/04/08 03:48:23;;;;;;;18.90;11.93;;;3.40;99.90;;;;;;5075788;28;20048;-74
2023/04/08 03:50:48;;;;;;;24.33;12.73;;;3.20;99.90;;;;;;5089274;28;20408;-74
2023/04/08 03:53:14;;;;;;;20.67;12.43;;;3.20;99.90;;;;;;5077916;28;20041;-74
2023/04/08 03:55:40;;;;;;;22.95;13.32;;;3.20;99.90;;;;;;5089758;28;20048;-74
2023/04/08 03:58:05;;;;;;;19.90;12.23;;;3.20;99.90;;;;;;5081018;28;20071;-74
2023/04/08 04:00:31;;;;;;;21.33;12.43;;;3.20;99.90;;;;;;5086354;28;20033;-75
2023/04/08 04:02:56;;;;;;;19.90;13.05;;;3.20;99.90;;;;;;5079487;28;20044;-75
2023/04/08 04:05:22;;;;;;;20.33;12.25;;;3.20;99.90;;;;;;5089500;28;20365;-74
2023/04/08 04:07:47;;;;;;;22.30;12.85;;;3.20;99.90;;;;;;5080087;28;20069;-75
2023/04/08 04:10:13;;;;;;;23.17;12.02;;;3.20;99.90;;;;;;5081962;28;20537;-75
2023/04/08 04:12:39;;;;;;;25.45;13.23;;;3.30;99.90;;;;;;5094282;28;20053;-75
2023/04/08 04:15:05;;;;;;;21.92;12.77;;;3.30;99.90;;;;;;5083430;28;20041;-75
2023/04/08 04:17:31;;;;;;;22.00;12.70;;;3.30;99.90;;;;;;5086127;28;20500;-75
2023/04/08 04:19:56;;;;;;;22.67;12.43;;;3.30;99.90;;;;;;5083329;28;20055;-75
2023/04/08 04:22:22;;;;;;;21.27;12.55;;;3.30;99.90;;;;;;5081045;28;20040;-75
2023/04/08 04:24:48;;;;;;;23.73;12.18;;;3.30;99.90;;;;;;5090209;28;20043;-74
2023/04/08 04:27:16;;;;;;;20.75;11.85;;;3.30;99.90;;;;;;5092152;28;20400;-75
2023/04/08 04:29:42;;;;;;;20.88;12.35;;;3.30;99.90;;;;;;5083318;28;20044;-75
2023/04/08 04:32:08;;;;;;;21.48;12.15;;;3.30;99.90;;;;;;5087580;28;20051;-74
2023/04/08 04:34:33;;;;;;;19.90;12.13;;;3.20;99.90;;;;;;5091824;28;20403;-78
2023/04/08 04:36:59;;;;;;;21.75;12.65;;;3.20;99.90;;;;;;5091254;28;20051;-79
2023/04/08 04:39:25;;;;;;;19.55;11.38;;;3.20;99.90;;;;;;5090319;28;20044;-75
2023/04/08 04:41:50;;;;;;;21.02;12.05;;;3.20;99.90;;;;;;5092573;28;20028;-73
2023/04/08 04:44:16;;;;;;;20.40;11.57;;;3.20;99.90;;;;;;5086081;28;20074;-74
2023/04/08 04:46:42;;;;;;;21.90;11.95;;;3.30;99.90;;;;;;5091682;28;20064;-77
2023/04/08 04:49:07;;;;;;;21.65;12.88;;;3.30;99.90;;;;;;5088178;28;20045;-73
2023/04/08 04:51:33;;;;;;;22.58;12.45;;;3.30;99.90;;;;;;5076827;28;20062;-74
2023/04/08 04:53:58;;;;;;;20.83;12.40;;;3.30;99.90;;;;;;5079731;28;20052;-75
2023/04/08 04:56:25;;;;;;;21.13;13.00;;;3.30;99.90;;;;;;5088821;28;20044;-75
2023/04/08 04:58:51;;;;;;;;;;;3.30;99.90;;;;;;5078284;28;20132;-74
2023/04/08 05:01:17;;;;;;;23.25;12.50;;;3.40;99.90;;;;;;5080741;28;19999;-75
2023/04/08 05:03:42;;;;;;;21.63;12.48;;;3.40;99.90;;;;;;5093667;28;20051;-74
2023/04/08 05:06:08;;;;;;;25.77;12.80;;;3.50;99.90;;;;;;5092951;28;20040;-76
2023/04/08 05:08:33;;;;;;;23.90;13.00;;;3.50;99.90;;;;;;5094839;28;20460;-74
2023/04/08 05:11:01;;;;;;;21.17;13.10;;;3.60;99.90;;;;;;5092987;28;20090;-75
2023/04/08 05:13:27;;;;;;;23.65;13.13;;;3.60;99.90;;;;;;5093140;28;20083;-74
2023/04/08 05:15:53;;;;;;;23.63;13.80;;;3.70;99.90;;;;;;5094104;28;20043;-75
2023/04/08 05:18:19;;;;;;;24.52;12.95;;;3.70;99.90;;;;;;5077623;28;20048;-75
2023/04/08 05:20:45;;;;;;;26.48;14.23;;;3.80;99.90;;;;;;5092564;28;20071;-76
2023/04/08 05:23:11;;;;;;;24.00;13.33;;;3.80;99.90;;;;;;5092658;28;20425;-76
2023/04/08 05:25:36;;;;;;;26.50;13.52;;;3.80;99.90;;;;;;5093265;28;20127;-76
2023/04/08 05:28:03;;;;;;;21.55;12.68;;;3.90;99.90;;;;;;5075870;28;20395;-76
2023/04/08 05:30:29;;;;;;;26.50;13.10;;;3.80;99.90;;;;;;5091475;28;20040;-75
2023/04/08 05:32:54;;;;;;;27.00;13.60;;;3.80;99.90;;;;;;5090687;28;20040;-75
2023/04/08 05:35:20;;;;;;;25.10;13.20;;;3.80;99.90;;;;;;5068016;28;20051;-76
2023/04/08 05:37:46;;;;;;;30.15;16.52;;;3.70;99.90;;;;;;5072220;28;20415;-74
2023/04/08 05:40:15;;;;;;;25.77;14.25;;;3.70;99.90;;;;;;5091450;28;20417;-79
2023/04/08 05:42:41;;;;;;;23.73;14.18;;;3.70;99.90;;;;;;5108014;28;20047;-75
2023/04/08 05:45:08;;;;;;;23.23;13.52;;;3.70;99.90;;;;;;5101652;28;20539;-74
2023/04/08 05:47:34;;;;;;;21.75;12.20;;;3.70;99.90;;;;;;5081177;28;20488;-74
2023/04/08 05:50:00;;;;;;;23.42;13.57;;;3.80;99.90;;;;;;5083283;28;20052;-73
2023/04/08 05:52:25;;;;;;;22.70;13.27;;;3.80;99.90;;;;;;5093007;28;20446;-73
2023/04/08 05:54:51;;;;;;;24.95;13.27;;;4.50;99.90;;;;;;5092556;28;20034;-74
2023/04/08 05:57:16;;;;;;;24.90;14.75;;;3.90;99.90;;;;;;5091138;28;20101;-74
2023/04/08 05:59:42;;;;;;;23.50;14.23;;;3.90;99.90;;;;;;5092254;28;20452;-73
2023/04/08 06:02:07;;;;;;;22.17;12.68;;;4.00;99.90;;;;;;5090822;28;20052;-74
2023/04/08 06:04:33;;;;;;;23.90;13.65;;;4.00;99.90;;;;;;5080005;28;20041;-75
2023/04/08 06:07:01;;;;;;;27.52;13.40;;;4.10;99.90;;;;;;5087395;28;20136;-76
2023/04/08 06:09:27;;;;;;;24.83;13.48;;;4.10;99.90;;;;;;5087789;28;20044;-75
2023/04/08 06:11:52;;;;;;;22.52;12.98;;;4.20;99.90;;;;;;5086612;28;20051;-76
2023/04/08 06:14:19;;;;;;;23.30;13.30;;;4.20;99.90;;;;;;5082031;28;20115;-82
2023/04/08 06:16:45;;;;;;;26.67;14.30;;;4.30;99.90;;;;;;5072609;28;20544;-79
2023/04/08 06:19:11;;;;;;;22.77;13.60;;;4.30;99.90;;;;;;5076064;28;20123;-75
2023/04/08 06:21:36;;;;;;;26.33;14.00;;;4.40;99.90;;;;;;5090978;28;20051;-74
2023/04/08 06:24:02;;;;;;;22.25;13.35;;;4.40;99.90;;;;;;5074627;28;20032;-75
2023/04/08 06:26:27;;;;;;;22.13;12.18;;;4.50;99.90;;;;;;5086618;28;20044;-77
2023/04/08 06:28:53;;;;;;;25.42;14.77;;;4.50;99.90;;;;;;5085154;28;20044;-76
2023/04/08 06:31:19;;;;;;;28.58;13.75;;;4.60;99.90;;;;;;5090618;28;20510;-73
2023/04/08 06:33:44;;;;;;;25.60;13.52;;;4.70;99.90;;;;;;5086515;28;20249;-74
2023/04/08 06:36:12;;;;;;;25.63;14.68;;;5.00;99.90;;;;;;5072366;28;20045;-79
2023/04/08 06:38:38;;;;;;;25.10;14.18;;;5.00;99.90;;;;;;5087767;28;20059;-75
2023/04/08 06:41:04;;;;;;;23.75;13.10;;;5.10;99.90;;;;;;5083796;28;20083;-76
2023/04/08 06:43:30;;;;;;;23.73;13.80;;;5.30;99.90;;;;;;5075271;28;20083;-74
2023/04/08 06:45:56;;;;;;;32.10;13.18;;;5.50;99.90;;;;;;5089368;28;20078;-73
2023/04/08 06:48:27;;;;;;;31.27;14.38;;;5.50;99.90;;;;;;5089193;28;20048;-76
2023/04/08 06:50:54;;;;;;;24.85;14.00;;;5.60;99.90;;;;;;5094156;28;20052;-75
2023/04/08 06:53:19;;;;;;;;;;;5.80;99.90;;;;;;5092486;28;20480;-76
2023/04/08 06:55:45;;;;;;;25.67;14.25;;;5.90;99.90;;;;;;5093078;28;19931;-74
2023/04/08 06:58:10;;;;;;;26.45;14.38;;;6.00;99.90;;;;;;5095282;28;20040;-74
2023/04/08 07:00:36;;;;;;;27.80;13.93;;;6.10;99.90;;;;;;5093071;28;20121;-73
2023/04/08 07:03:02;;;;;;;28.00;13.27;;;6.60;99.90;;;;;;5090578;28;20054;-76
2023/04/08 07:05:28;;;;;;;29.52;14.63;;;6.20;99.90;;;;;;5085379;28;20400;-79
2023/04/08 07:07:53;;;;;;;24.55;14.05;;;6.30;99.90;;;;;;5095750;28;20066;-82
2023/04/08 07:10:19;;;;;;;23.58;12.90;;;6.40;99.90;;;;;;5091720;28;20036;-76
2023/04/08 07:12:45;;;;;;;26.10;13.93;;;6.30;99.90;;;;;;5091724;28;20487;-75
2023/04/08 07:15:11;;;;;;;26.75;14.15;;;7.00;99.90;;;;;;5075291;28;20044;-76
2023/04/08 07:17:38;;;;;;;24.23;13.48;;;6.40;99.90;;;;;;5094416;28;20039;-78
2023/04/08 07:20:05;;;;;;;22.73;12.38;;;6.50;99.90;;;;;;5076405;28;20101;-74
2023/04/08 07:22:30;;;;;;;27.27;14.63;;;6.50;99.90;;;;;;5094395;28;20043;-73
2023/04/08 07:24:56;;;;;;;19.42;11.23;;;6.60;99.90;;;;;;5097096;28;20391;-77
2023/04/08 07:27:22;;;;;;;23.83;13.45;;;6.60;99.90;;;;;;5097562;28;20035;-72
2023/04/08 07:29:53;;;;;;;23.35;13.57;;;6.70;99.90;;;;;;5094902;28;20036;-76
2023/04/08 07:32:18;;;;;;;23.77;13.00;;;6.70;99.90;;;;;;5095104;28;20032;-73
2023/04/08 07:34:44;;;;;;;24.17;13.10;;;6.80;99.90;;;;;;5093529;28;20040;-74
2023/04/08 07:37:09;;;;;;;24.45;13.63;;;6.90;99.90;;;;;;5094269;28;20032;-79
2023/04/08 07:39:35;;;;;;;20.90;12.07;;;7.00;99.90;;;;;;5093292;28;20048;-75
2023/04/08 07:42:01;;;;;;;23.38;13.13;;;7.10;99.90;;;;;;5094061;28;20036;-71
2023/04/08 07:44:26;;;;;;;22.00;11.60;;;7.10;99.90;;;;;;5093440;28;20044;-73
2023/04/08 07:46:52;;;;;;;22.67;11.85;;;7.70;99.90;;;;;;5095129;28;20052;-73
2023/04/08 07:49:17;;;;;;;21.52;12.73;;;7.30;99.90;;;;;;5094640;28;20052;-75
2023/04/08 07:51:43;;;;;;;22.90;12.45;;;7.50;99.90;;;;;;5094867;28;20040;-75
2023/04/08 07:54:11;;;;;;;19.75;11.93;;;8.10;99.90;;;;;;5095141;28;20044;-73
2023/04/08 07:56:39;;;;;;;19.95;11.55;;;7.40;99.90;;;;;;5094269;28;20058;-73
2023/04/08 07:59:06;;;;;;;19.27;11.52;;;7.60;99.90;;;;;;5095503;28;20079;-78
2023/04/08 08:01:34;;;;;;;17.70;11.88;;;7.30;99.90;;;;;;5090754;28;20522;-74
2023/04/08 08:04:00;;;;;;;19.63;12.00;;;8.10;99.90;;;;;;5093743;28;20055;-75
2023/04/08 08:06:26;;;;;;;20.13;12.60;;;7.50;99.90;;;;;;5086002;28;20044;-78
2023/04/08 08:08:52;;;;;;;18.97;11.43;;;7.50;99.90;;;;;;5090370;28;20047;-80
2023/04/08 08:11:18;;;;;;;20.98;11.98;;;7.70;99.90;;;;;;5097823;28;20278;-75
2023/04/08 08:13:44;;;;;;;19.13;10.73;;;7.90;99.90;;;;;;5082606;28;20032;-78
2023/04/08 08:16:10;;;;;;;19.55;12.02;;;8.20;99.90;;;;;;5080255;28;20063;-77
2023/04/08 08:18:40;;;;;;;19.53;11.53;;;8.40;99.90;;;;;;5081378;28;20156;-77
2023/04/08 08:21:06;;;;;;;18.83;11.43;;;8.50;99.90;;;;;;5092981;28;20298;-80
2023/04/08 08:23:31;;;;;;;19.03;9.90;;;8.60;99.90;;;;;;5088711;28;20063;-74
2023/04/08 08:26:02;;;;;;;19.60;11.98;;;9.30;99.90;;;;;;5090690;28;20479;-78
2023/04/08 08:28:27;;;;;;;20.67;11.40;;;8.50;99.90;;;;;;5089782;28;20044;-75
2023/04/08 08:30:53;;;;;;;20.95;11.32;;;8.50;99.90;;;;;;5085737;28;20047;-76
2023/04/08 08:33:19;;;;;;;18.85;10.75;;;8.50;99.90;;;;;;5077938;28;20040;-80
2023/04/08 08:35:45;;;;;;;17.75;10.57;;;8.90;99.90;;;;;;5089063;28;20045;-72
2023/04/08 08:38:12;;;;;;;14.23;9.37;;;8.40;99.90;;;;;;5094415;28;20503;-74
2023/04/08 08:40:38;;;;;;;16.40;9.70;;;8.80;99.90;;;;;;5094717;28;20097;-74
2023/04/08 08:43:04;;;;;;;16.67;9.73;;;9.10;99.90;;;;;;5094859;28;20056;-74
2023/04/08 08:45:30;;;;;;;16.93;9.90;;;8.60;99.90;;;;;;5094018;28;20584;-73
2023/04/08 08:48:00;;;;;;;15.63;8.57;;;8.80;99.90;;;;;;5094871;28;20047;-74
2023/04/08 08:50:26;;;;;;;13.98;9.40;;;8.90;99.90;;;;;;5094411;28;20403;-81
2023/04/08 08:52:52;;;;;;;14.45;9.93;;;8.90;99.90;;;;;;5092461;28;20759;-76
2023/04/08 08:55:19;;;;;;;12.13;7.82;;;9.00;99.90;;;;;;5094118;28;20036;-72
2023/04/08 08:57:45;;;;;;;13.95;8.95;;;9.10;99.90;;;;;;5072769;28;20045;-72
2023/04/08 09:00:12;;;;;;;14.02;8.70;;;9.10;99.90;;;;;;5072806;28;20082;-73
2023/04/08 09:02:37;;;;;;;14.32;9.35;;;9.10;99.90;;;;;;5073122;28;20062;-71
2023/04/08 09:05:04;;;;;;;13.15;8.82;;;9.10;99.90;;;;;;5083964;28;20119;-78
2023/04/08 09:07:39;;;;;;;13.90;8.83;;;9.00;99.90;;;;;;5091495;28;20058;-76
2023/04/08 09:10:05;;;;;;;14.52;9.82;;;9.10;99.90;;;;;;5083124;28;20610;-79
2023/04/08 09:12:31;;;;;;;14.20;9.03;;;9.00;99.90;;;;;;5093940;28;20043;-73
2023/04/08 09:15:05;;;;;;;15.73;9.35;;;9.00;99.90;;;;;;5094011;28;20618;-72
2023/04/08 09:17:40;;;;;;;14.05;8.75;;;8.90;99.90;;;;;;5093514;28;20039;-80
2023/04/08 09:20:10;;;;;;;13.50;8.85;;;9.00;99.90;;;;;;5093523;28;20081;-75
2023/04/08 09:22:59;;;;;;;13.18;8.90;;;9.00;99.90;;;;;;5089293;28;20075;-80
2023/04/08 09:25:31;;;;;;;14.40;9.38;;;8.80;99.90;;;;;;5093326;28;20115;-78
2023/04/08 09:27:57;;;;;;;13.80;9.07;;;8.70;99.90;;;;;;5086761;28;20048;-75
2023/04/08 09:30:24;;;;;;;13.60;8.55;;;8.70;99.90;;;;;;5082603;28;20037;-79
2023/04/08 09:32:55;;;;;;;14.68;9.65;;;8.80;99.90;;;;;;5090038;28;20082;-73
2023/04/08 09:35:21;;;;;;;14.93;9.82;;;8.90;99.90;;;;;;5082623;28;20045;-72
2023/04/08 09:37:48;;;;;;;15.23;9.93;;;9.10;99.90;;;;;;5082624;28;20044;-79
2023/04/08 09:40:15;;;;;;;14.57;9.68;;;8.90;99.90;;;;;;5081830;28;20033;-72
2023/04/08 09:42:44;;;;;;;15.73;9.77;;;9.00;99.90;;;;;;5090968;28;20043;-78
2023/04/08 09:45:11;;;;;;;15.32;9.60;;;9.30;99.90;;;;;;5084591;28;20032;-75
2023/04/08 09:47:56;;;;;;;16.75;11.02;;;9.10;99.90;;;;;;5077391;28;20044;-77
2023/04/08 09:50:31;;;;;;;16.73;10.05;;;9.40;99.90;;;;;;5087300;28;20059;-79
2023/04/08 09:53:13;;;;;;;14.57;9.73;;;9.10;99.90;;;;;;5082794;28;20055;-74
2023/04/08 09:55:40;;;;;;;18.77;11.32;;;9.00;99.90;;;;;;5090032;28;20048;-79
2023/04/08 09:58:15;;;;;;;;;;;9.00;99.90;;;;;;5080339;28;20048;-76
2023/04/08 10:00:49;;;;;;;20.90;11.77;;;8.80;99.90;;;;;;5090642;28;20326;-80
2023/04/08 10:03:23;;;;;;;15.68;9.98;;;9.00;99.90;;;;;;5091693;28;20051;-75
2023/04/08 10:05:51;;;;;;;18.98;10.95;;;8.90;99.90;;;;;;5088340;28;20388;-76
2023/04/08 10:08:17;;;;;;;18.75;11.90;;;9.10;99.90;;;;;;5089701;28;20047;-75
2023/04/08 10:10:44;;;;;;;20.00;12.13;;;9.10;99.90;;;;;;5091783;28;20062;-76
2023/04/08 10:13:10;;;;;;;17.75;12.07;;;9.40;99.90;;;;;;5088009;28;20574;-76
2023/04/08 10:15:37;;;;;;;18.65;11.65;;;9.10;99.90;;;;;;5078153;28;20200;-78
2023/04/08 10:18:05;;;;;;;;;;;9.10;99.90;;;;;;5087092;28;20070;-75
2023/04/08 10:20:37;;;;;;;17.92;11.43;;;9.10;99.90;;;;;;5087794;28;19920;-80
2023/04/08 10:23:05;;;;;;;16.10;10.95;;;9.30;99.90;;;;;;5088742;28;20044;-73
2023/04/08 10:25:34;;;;;;;20.30;11.93;;;9.40;99.90;;;;;;5090105;28;20048;-73
2023/04/08 10:28:21;;;;;;;19.13;11.80;;;8.90;99.90;;;;;;5082515;28;20045;-74
2023/04/08 10:30:51;;;;;;;18.25;11.65;;;8.90;99.90;;;;;;5086503;28;20048;-75
2023/04/08 10:33:28;;;;;;;19.63;11.75;;;8.90;99.90;;;;;;5087210;28;20055;-74
2023/04/08 10:35:59;;;;;;;;;;;9.00;99.90;;;;;;5090264;28;20163;-73
2023/04/08 10:38:25;;;;;;;19.13;11.73;;;9.00;99.90;;;;;;5086016;28;19966;-76
2023/04/08 10:40:51;;;;;;;21.23;11.48;;;9.10;99.90;;;;;;5091385;28;20109;-79
2023/04/08 10:43:17;;;;;;;18.27;11.20;;;9.20;99.90;;;;;;5062037;28;20537;-79
2023/04/08 10:45:44;;;;;;;17.07;10.93;;;9.40;99.90;;;;;;5082457;28;20051;-74
2023/04/08 10:48:23;;;;;;;17.30;11.02;;;10.10;99.90;;;;;;5079195;28;20102;-77
2023/04/08 10:50:53;;;;;;;15.63;10.57;;;9.60;99.90;;;;;;5076215;28;20064;-86
2023/04/08 10:53:27;;;;;;;19.27;11.45;;;9.70;99.90;;;;;;5076152;28;20080;-81
2023/04/08 10:55:53;;;;;;;15.45;10.40;;;9.80;99.90;;;;;;5090774;28;20044;-74
2023/04/08 10:58:18;;;;;;;17.17;10.23;;;9.90;99.90;;;;;;5097221;28;20375;-73
2023/04/08 11:00:44;;;;;;;16.08;10.00;;;9.90;99.90;;;;;;5097156;28;20048;-73
2023/04/08 11:03:10;;;;;;;15.80;9.52;;;10.00;99.90;;;;;;5095950;28;20471;-73
2023/04/08 11:05:37;;;;;;;15.98;9.57;;;10.00;99.90;;;;;;5096947;28;20078;-73
2023/04/08 11:08:05;;;;;;;13.55;8.93;;;10.10;99.90;;;;;;5095624;28;20044;-73
2023/04/08 11:10:35;;;;;;;16.88;9.68;;;10.10;99.90;;;;;;5096754;28;20040;-73
2023/04/08 11:13:01;;;;;;;17.27;10.70;;;10.20;99.90;;;;;;5097522;28;20044;-73
2023/04/08 11:15:29;;;;;;;16.40;10.95;;;10.20;99.90;;;;;;5096590;28;20092;-73
2023/04/08 11:17:55;;;;;;;16.20;10.20;;;10.20;99.90;;;;;;5097056;28;20044;-73
2023/04/08 11:20:21;;;;;;;17.35;10.10;;;10.20;99.90;;;;;;5096733;28;20173;-73
2023/04/08 11:22:47;;;;;;;15.90;9.60;;;10.20;99.90;;;;;;5096689;28;20044;-72
2023/04/08 11:25:13;;;;;;;15.52;9.13;;;10.20;99.90;;;;;;5095633;28;20085;-72
2023/04/08 11:27:39;;;;;;;15.27;9.05;;;10.20;99.90;;;;;;5096646;28;20047;-72
2023/04/08 11:30:07;;;;;;;14.07;9.23;;;10.20;99.90;;;;;;5096575;28;20044;-72
2023/04/08 11:32:35;;;;;;;16.90;9.15;;;10.30;99.90;;;;;;5096572;28;20078;-72
2023/04/08 11:35:03;;;;;;;16.10;10.90;;;10.40;99.90;;;;;;5096514;28;20079;-72
2023/04/08 11:37:41;;;;;;;17.90;10.55;;;10.40;99.90;;;;;;5096375;28;20051;-72
2023/04/08 11:40:11;;;;;;;16.70;11.13;;;10.30;99.90;;;;;;5096431;28;20048;-72
2023/04/08 11:42:38;;;;;;;19.60;11.25;;;10.30;99.90;;;;;;5096255;28;20097;-72
2023/04/08 11:45:11;;;;;;;18.58;10.90;;;10.20;99.90;;;;;;5095379;28;20051;-72
2023/04/08 11:47:37;;;;;;;22.17;11.90;;;10.20;99.90;;;;;;5096221;28;20490;-72
2023/04/08 11:50:04;;;;;;;18.70;11.35;;;10.20;99.90;;;;;;5096115;28;20052;-72
2023/04/08 11:52:40;;;;;;;18.45;11.35;;;10.20;99.90;;;;;;5095870;28;20502;-72
2023/04/08 11:55:06;;;;;;;16.13;9.30;;;10.30;99.90;;;;;;5096472;28;20048;-72
2023/04/08 11:57:31;;;;;;;18.48;10.52;;;10.20;99.90;;;;;;5096065;28;20040;-72
2023/04/08 11:59:57;;;;;;;19.60;11.38;;;10.10;99.90;;;;;;5096093;28;20131;-72
2023/04/08 12:02:23;;;;;;;19.30;11.35;;;10.00;99.90;;;;;;5095639;28;20048;-72
2023/04/08 12:04:48;;;;;;;20.50;11.73;;;10.00;99.90;;;;;;5095893;28;20134;-72
2023/04/08 12:07:14;;;;;;;18.60;10.52;;;9.90;99.90;;;;;;5095912;28;20123;-72
2023/04/08 12:09:39;;;;;;;18.75;11.10;;;9.90;99.90;;;;;;5096333;28;20066;-72
2023/04/08 12:12:06;;;;;;;17.15;11.23;;;10.00;99.90;;;;;;5095834;28;20040;-72
2023/04/08 12:14:31;;;;;;;18.33;11.20;;;10.10;99.90;;;;;;5095786;28;20160;-72
2023/04/08 12:16:57;;;;;;;18.98;11.68;;;9.80;99.90;;;;;;5095811;28;20306;-72
2023/04/08 12:19:23;;;;;;;19.58;10.63;;;9.80;99.90;;;;;;5095708;28;20051;-72
2023/04/08 12:21:48;;;;;;;23.08;11.48;;;9.70;99.90;;;;;;5095634;28;20040;-72
2023/04/08 12:24:14;;;;;;;20.15;11.30;;;9.70;99.90;;;;;;5095627;28;20040;-72
2023/04/08 12:26:39;;;;;;;19.52;12.10;;;9.70;99.90;;;;;;5095375;28;20495;-72
2023/04/08 12:29:05;;;;;;;22.55;12.27;;;9.80;99.90;;;;;;5095351;28;20124;-72
2023/04/08 12:31:31;;;;;;;19.23;12.20;;;9.80;99.90;;;;;;5095515;28;20043;-72
2023/04/08 12:33:56;;;;;;;20.67;12.75;;;9.80;99.90;;;;;;5095283;28;20062;-72
2023/04/08 12:36:22;;;;;;;21.77;13.57;;;9.70;99.90;;;;;;5095349;28;20044;-72
2023/04/08 12:38:47;;;;;;;22.38;12.95;;;9.70;99.90;;;;;;5095682;28;20044;-72
2023/04/08 12:41:13;;;;;;;23.88;12.93;;;9.70;99.90;;;;;;5094044;28;20076;-72